createdAt,value
2017-05-16T00:02:28.192Z,76.30
2017-05-16T00:04:55.633Z,76.10
2017-05-16T00:07:22.836Z,76.10
2017-05-16T00:09:49.602Z,76.10
2017-05-16T00:12:22.444Z,77.90
2017-05-16T00:14:50.013Z,77.90
2017-05-16T00:17:17.836Z,75.30
2017-05-16T00:19:46.340Z,74.90
2017-05-16T00:22:16.222Z,75.20
2017-05-16T00:24:44.806Z,75.90
2017-05-16T00:27:13.427Z,75.90
2017-05-16T00:29:41.513Z,75.80
2017-05-16T00:32:09.136Z,75.70
2017-05-16T00:34:39.020Z,75.40
2017-05-16T00:37:09.537Z,75.60
2017-05-16T00:39:39.782Z,75.70
2017-05-16T00:42:09.724Z,74.80
2017-05-16T00:44:40.980Z,76.50
2017-05-16T00:47:11.628Z,77.80
2017-05-16T00:49:40.876Z,75.60
2017-05-16T00:52:12.806Z,74.80
2017-05-16T00:54:39.563Z,75.30
2017-05-16T00:57:08.146Z,75.30
2017-05-16T00:59:37.013Z,75.60
2017-05-16T01:02:04.689Z,74.90
2017-05-16T01:04:33.872Z,75.10
2017-05-16T01:07:03.114Z,77.70
2017-05-16T01:09:34.399Z,75.40
2017-05-16T01:12:03.775Z,75.80
2017-05-16T01:14:33.938Z,75.80
2017-05-16T01:17:01.625Z,75.20
2017-05-16T01:19:28.925Z,76.30
2017-05-16T01:22:02.426Z,76.30
2017-05-16T01:24:29.939Z,77.70
2017-05-16T01:27:01.249Z,77.80
2017-05-16T01:29:27.993Z,76.50
2017-05-16T01:31:55.058Z,76.50
2017-05-16T01:34:22.858Z,75.60
2017-05-16T01:36:52.989Z,75.60
2017-05-16T01:39:21.417Z,75.90
2017-05-16T01:41:51.499Z,77.30
2017-05-16T01:44:21.124Z,76.20
2017-05-16T01:46:48.087Z,77.40
2017-05-16T01:49:14.713Z,77.40
2017-05-16T01:51:45.742Z,76.80
2017-05-16T01:54:12.986Z,76.10
2017-05-16T01:56:40.643Z,75.00
2017-05-16T01:59:09.391Z,76.50
2017-05-16T02:01:41.430Z,76.50
2017-05-16T02:04:09.723Z,76.70
2017-05-16T02:06:36.926Z,76.80
2017-05-16T02:09:04.519Z,75.00
2017-05-16T02:11:34.580Z,75.00
2017-05-16T02:14:02.562Z,75.10
2017-05-16T02:16:29.515Z,75.10
2017-05-16T02:18:58.055Z,74.60
2017-05-16T02:21:26.694Z,74.90
2017-05-16T02:23:54.513Z,76.20
2017-05-16T02:26:23.085Z,77.00
2017-05-16T02:28:50.852Z,77.00
2017-05-16T02:31:18.937Z,76.80
2017-05-16T02:33:45.338Z,76.80
2017-05-16T02:36:13.114Z,76.60
2017-05-16T02:38:41.642Z,74.90
2017-05-16T02:41:11.851Z,74.90
2017-05-16T02:43:41.319Z,76.30
2017-05-16T02:46:10.365Z,73.70
2017-05-16T02:48:38.168Z,73.70
2017-05-16T02:51:08.683Z,74.70
2017-05-16T02:53:36.864Z,74.70
2017-05-16T02:56:05.432Z,74.10
2017-05-16T02:58:31.898Z,74.10
2017-05-16T03:01:00.421Z,73.10
2017-05-16T03:03:28.792Z,73.10
2017-05-16T03:05:55.841Z,75.90
2017-05-16T03:08:24.552Z,73.50
2017-05-16T03:10:53.382Z,75.20
2017-05-16T03:13:25.759Z,75.20
2017-05-16T03:15:55.009Z,74.70
2017-05-16T03:18:22.550Z,74.80
2017-05-16T03:20:54.485Z,74.30
2017-05-16T03:23:22.870Z,73.30
2017-05-16T03:25:53.625Z,74.30
2017-05-16T03:28:23.619Z,74.80
2017-05-16T03:30:50.432Z,76.30
2017-05-16T03:33:19.175Z,74.60
2017-05-16T03:35:47.818Z,75.20
2017-05-16T03:38:17.983Z,75.20
2017-05-16T03:40:50.746Z,74.40
2017-05-16T03:43:21.140Z,74.00
2017-05-16T03:45:49.533Z,74.00
2017-05-16T03:48:18.621Z,73.80
2017-05-16T03:50:47.077Z,76.70
2017-05-16T03:53:14.330Z,74.80
2017-05-16T03:55:42.617Z,74.00
2017-05-16T03:58:12.143Z,75.80
2017-05-16T04:00:40.123Z,75.80
2017-05-16T04:03:07.470Z,72.90
2017-05-16T04:05:35.562Z,73.10
2017-05-16T04:08:04.036Z,73.10
2017-05-16T04:10:38.654Z,75.80
2017-05-16T04:13:07.668Z,76.10
2017-05-16T04:15:35.250Z,76.10
2017-05-16T04:18:07.718Z,75.10
2017-05-16T04:20:34.952Z,74.90
2017-05-16T04:23:04.315Z,74.70
2017-05-16T04:25:32.998Z,76.40
2017-05-16T04:28:00.157Z,75.20
2017-05-16T04:30:27.826Z,73.50
2017-05-16T04:32:56.822Z,73.50
2017-05-16T04:35:30.384Z,74.70
2017-05-16T04:37:58.677Z,75.20
2017-05-16T04:40:25.807Z,75.80
2017-05-16T04:42:54.952Z,76.40
2017-05-16T04:45:23.197Z,76.40
2017-05-16T04:47:51.448Z,77.70
2017-05-16T04:50:22.821Z,77.10
2017-05-16T04:52:56.186Z,75.90
2017-05-16T04:55:25.813Z,76.40
2017-05-16T04:57:56.277Z,75.10
2017-05-16T05:00:27.229Z,76.70
2017-05-16T05:02:57.868Z,76.40
2017-05-16T05:05:25.318Z,76.10
2017-05-16T05:07:55.898Z,76.20
2017-05-16T05:10:24.131Z,76.10
2017-05-16T05:15:26.018Z,76.20
2017-05-16T05:17:58.389Z,75.60
2017-05-16T05:20:36.116Z,75.70
2017-05-16T05:33:38.833Z,75.90
2017-05-16T05:49:04.537Z,74.90
2017-05-16T05:51:37.728Z,75.10
2017-05-16T05:54:06.562Z,74.60
2017-05-16T05:59:22.817Z,74.20
2017-05-16T06:04:42.825Z,74.40
2017-05-16T06:07:13.630Z,74.10
2017-05-16T06:15:07.530Z,74.00
2017-05-16T06:22:59.380Z,72.80
2017-05-16T06:28:06.077Z,72.60
2017-05-16T06:30:34.155Z,71.60
2017-05-16T06:33:00.877Z,71.60
2017-05-16T06:35:32.944Z,73.10
2017-05-16T06:38:00.579Z,72.90
2017-05-16T06:40:28.189Z,73.30
2017-05-16T06:42:56.686Z,73.30
2017-05-16T06:45:23.351Z,72.70
2017-05-16T06:47:51.038Z,72.40
2017-05-16T06:50:17.888Z,73.40
2017-05-16T06:52:44.705Z,73.40
2017-05-16T06:55:12.922Z,72.20
2017-05-16T06:57:39.962Z,73.70
2017-05-16T07:00:07.123Z,72.90
2017-05-16T07:02:33.982Z,73.30
2017-05-16T07:05:00.693Z,73.30
2017-05-16T07:07:27.486Z,72.60
2017-05-16T07:09:54.621Z,74.40
2017-05-16T07:12:21.786Z,73.70
2017-05-16T07:14:48.828Z,73.70
2017-05-16T07:17:15.908Z,74.80
2017-05-16T07:19:43.077Z,74.80
2017-05-16T07:22:10.609Z,73.80
2017-05-16T07:24:38.543Z,73.80
2017-05-16T07:27:05.706Z,72.10
2017-05-16T07:29:33.183Z,71.90
2017-05-16T07:32:01.781Z,70.10
2017-05-16T07:34:28.156Z,70.10
2017-05-16T07:36:56.212Z,72.50
2017-05-16T07:39:23.128Z,72.10
2017-05-16T07:41:50.510Z,71.20
2017-05-16T07:44:16.984Z,71.20
2017-05-16T07:46:43.867Z,71.30
2017-05-16T07:49:10.663Z,71.50
2017-05-16T07:51:37.450Z,69.50
2017-05-16T07:54:06.096Z,69.60
2017-05-16T07:56:32.911Z,69.70
2017-05-16T07:58:59.965Z,70.10
2017-05-16T08:01:27.897Z,71.60
2017-05-16T08:03:56.489Z,71.40
2017-05-16T08:06:23.308Z,69.40
2017-05-16T08:08:50.461Z,68.60
2017-05-16T08:11:18.515Z,68.60
2017-05-16T08:13:46.885Z,69.40
2017-05-16T08:16:14.041Z,66.90
2017-05-16T08:18:40.868Z,68.60
2017-05-16T08:21:07.957Z,68.70
2017-05-16T08:23:34.739Z,67.00
2017-05-16T08:26:01.848Z,67.00
2017-05-16T08:28:28.282Z,66.80
2017-05-16T08:30:55.385Z,67.60
2017-05-16T08:33:22.144Z,67.50
2017-05-16T08:35:49.352Z,66.00
2017-05-16T08:38:17.859Z,65.60
2017-05-16T08:40:44.745Z,63.60
2017-05-16T08:43:12.867Z,63.40
2017-05-16T08:45:42.068Z,64.60
2017-05-16T08:48:08.876Z,61.00
2017-05-16T08:50:36.368Z,63.20
2017-05-16T08:53:03.889Z,61.50
2017-05-16T08:55:30.323Z,61.50
2017-05-16T08:57:57.489Z,59.50
2017-05-16T09:00:24.315Z,61.60
2017-05-16T09:02:51.134Z,60.40
2017-05-16T09:05:17.930Z,59.80
2017-05-16T09:07:44.691Z,61.50
2017-05-16T09:10:12.457Z,61.50
2017-05-16T09:12:39.535Z,60.60
2017-05-16T09:15:06.337Z,59.30
2017-05-16T09:17:33.509Z,57.60
2017-05-16T09:20:00.593Z,57.60
2017-05-16T09:22:28.066Z,57.20
2017-05-16T09:24:54.777Z,57.20
2017-05-16T09:27:21.869Z,59.60
2017-05-16T09:29:48.648Z,58.00
2017-05-16T09:32:15.696Z,57.30
2017-05-16T09:34:42.460Z,57.20
2017-05-16T09:37:09.760Z,55.20
2017-05-16T09:39:36.402Z,51.90
2017-05-16T09:42:04.353Z,52.30
2017-05-16T09:44:30.735Z,53.20
2017-05-16T09:46:59.617Z,51.70
2017-05-16T09:49:27.029Z,49.50
2017-05-16T09:51:54.230Z,47.60
2017-05-16T09:54:21.496Z,48.30
2017-05-16T09:56:48.540Z,47.40
2017-05-16T09:59:14.955Z,47.50
2017-05-16T10:01:41.480Z,48.50
2017-05-16T10:04:07.885Z,46.40
2017-05-16T10:06:35.517Z,47.30
2017-05-16T10:09:03.093Z,45.30
2017-05-16T10:11:30.230Z,44.70
2017-05-16T10:13:56.994Z,43.90
2017-05-16T10:16:23.502Z,43.90
2017-05-16T10:18:54.290Z,43.50
2017-05-16T10:21:22.000Z,44.90
2017-05-16T10:23:49.470Z,44.60
2017-05-16T10:26:15.935Z,44.60
2017-05-16T10:28:42.725Z,41.30
2017-05-16T10:31:09.943Z,40.60
2017-05-16T10:33:36.697Z,40.10
2017-05-16T10:38:30.083Z,39.80
2017-05-16T10:40:57.344Z,41.60
2017-05-16T10:43:24.082Z,41.30
2017-05-16T10:45:51.220Z,43.70
2017-05-16T10:48:18.288Z,42.90
2017-05-16T10:50:44.978Z,42.90
2017-05-16T10:53:12.545Z,40.90
2017-05-16T10:55:39.015Z,40.90
2017-05-16T10:58:05.768Z,38.30
2017-05-16T11:00:33.130Z,38.30
2017-05-16T11:02:59.917Z,42.00
2017-05-16T11:05:27.347Z,43.10
2017-05-16T11:07:53.740Z,43.10
2017-05-16T11:10:20.167Z,42.00
2017-05-16T11:12:46.938Z,39.00
2017-05-16T11:15:13.384Z,39.00
2017-05-16T11:17:39.861Z,40.90
2017-05-16T11:20:06.668Z,40.30
2017-05-16T11:22:33.752Z,39.90
2017-05-16T11:25:00.914Z,39.00
2017-05-16T11:27:27.726Z,36.90
2017-05-16T11:29:55.516Z,38.60
2017-05-16T11:32:22.316Z,40.40
2017-05-16T11:34:48.776Z,40.40
2017-05-16T11:37:15.556Z,36.00
2017-05-16T11:39:42.333Z,36.50
2017-05-16T11:42:09.489Z,35.70
2017-05-16T11:44:35.916Z,35.70
2017-05-16T11:47:02.962Z,32.40
2017-05-16T11:49:30.067Z,30.90
2017-05-16T11:51:57.189Z,29.70
2017-05-16T11:54:23.911Z,28.80
2017-05-16T11:56:50.697Z,25.50
2017-05-16T11:59:18.523Z,27.30
2017-05-16T12:01:47.372Z,27.80
2017-05-16T12:04:15.147Z,27.80
2017-05-16T12:06:43.262Z,26.10
2017-05-16T12:09:10.833Z,26.10
2017-05-16T12:11:37.681Z,23.90
2017-05-16T12:14:04.595Z,22.60
2017-05-16T12:16:31.779Z,24.20
2017-05-16T12:18:59.656Z,24.10
2017-05-16T12:21:26.088Z,24.00
2017-05-16T12:23:53.173Z,23.40
2017-05-16T12:26:20.612Z,23.90
2017-05-16T12:28:47.519Z,23.30
2017-05-16T12:31:14.360Z,23.10
2017-05-16T12:33:41.455Z,21.60
2017-05-16T12:36:08.519Z,22.20
2017-05-16T12:38:37.000Z,22.20
2017-05-16T12:41:04.149Z,21.90
2017-05-16T12:43:30.909Z,21.10
2017-05-16T12:45:58.053Z,21.00
2017-05-16T12:48:24.861Z,21.90
2017-05-16T12:50:51.737Z,21.90
2017-05-16T12:53:18.486Z,25.60
2017-05-16T12:55:45.692Z,27.80
2017-05-16T12:58:12.453Z,26.70
2017-05-16T13:00:39.249Z,23.20
2017-05-16T13:03:06.372Z,20.10
2017-05-16T13:05:32.803Z,20.20
2017-05-16T13:08:00.211Z,20.80
2017-05-16T13:10:27.370Z,18.00
2017-05-16T13:12:54.132Z,19.30
2017-05-16T13:15:21.281Z,21.50
2017-05-16T13:17:48.045Z,23.00
2017-05-16T13:20:15.168Z,23.30
2017-05-16T13:22:41.953Z,24.30
2017-05-16T13:25:08.782Z,24.50
2017-05-16T13:27:35.829Z,21.70
2017-05-16T13:30:02.948Z,23.70
2017-05-16T13:32:29.599Z,23.70
2017-05-16T13:34:56.351Z,23.20
2017-05-16T13:37:23.991Z,20.60
2017-05-16T13:39:51.197Z,21.10
2017-05-16T13:42:18.325Z,19.60
2017-05-16T13:44:45.146Z,22.90
2017-05-16T13:47:12.658Z,19.60
2017-05-16T13:49:39.190Z,19.60
2017-05-16T13:52:06.588Z,21.70
2017-05-16T13:54:34.821Z,19.80
2017-05-16T13:57:01.912Z,20.70
2017-05-16T13:59:28.720Z,20.70
2017-05-16T14:01:55.170Z,20.70
2017-05-16T14:04:22.336Z,18.70
2017-05-16T14:06:49.274Z,20.40
2017-05-16T14:09:16.060Z,21.20
2017-05-16T14:11:43.113Z,21.30
2017-05-16T14:14:09.943Z,22.20
2017-05-16T14:16:37.295Z,24.60
2017-05-16T14:19:04.069Z,27.30
2017-05-16T14:21:30.885Z,27.80
2017-05-16T14:23:57.925Z,29.30
2017-05-16T14:26:24.758Z,30.80
2017-05-16T14:28:52.331Z,30.10
2017-05-16T14:31:19.491Z,30.10
2017-05-16T14:33:47.352Z,29.60
2017-05-16T14:36:14.509Z,30.60
2017-05-16T14:38:41.452Z,30.30
2017-05-16T14:41:08.597Z,27.90
2017-05-16T14:43:35.855Z,28.00
2017-05-16T14:46:03.495Z,26.90
2017-05-16T14:48:30.522Z,28.30
2017-05-16T14:50:58.590Z,27.50
2017-05-16T14:53:25.356Z,29.60
2017-05-16T14:55:52.898Z,31.80
2017-05-16T14:58:20.604Z,31.50
2017-05-16T15:00:48.703Z,31.70
2017-05-16T15:03:15.785Z,32.50
2017-05-16T15:05:42.893Z,30.90
2017-05-16T15:08:09.661Z,29.10
2017-05-16T15:10:37.275Z,27.20
2017-05-16T15:13:04.588Z,26.90
2017-05-16T15:15:31.666Z,26.90
2017-05-16T15:17:58.401Z,26.90
2017-05-16T15:20:25.221Z,24.80
2017-05-16T15:22:52.631Z,23.90
2017-05-16T15:25:20.581Z,25.20
2017-05-16T15:27:47.445Z,24.00
2017-05-16T15:35:25.300Z,23.20
2017-05-16T15:37:53.757Z,24.30
2017-05-16T15:40:21.694Z,23.50
2017-05-16T15:42:50.274Z,22.80
2017-05-16T15:45:19.445Z,24.40
2017-05-16T15:47:46.528Z,22.70
2017-05-16T15:50:13.777Z,23.80
2017-05-16T15:52:40.973Z,23.10
2017-05-16T15:57:42.481Z,25.30
2017-05-16T16:00:09.473Z,26.20
2017-05-16T16:02:38.204Z,25.80
2017-05-16T16:05:05.060Z,25.60
2017-05-16T16:10:07.652Z,27.20
2017-05-16T16:12:35.108Z,27.50
2017-05-16T16:15:03.054Z,27.00
2017-05-16T16:17:30.817Z,27.50
2017-05-16T16:19:57.642Z,27.50
2017-05-16T16:22:26.605Z,27.10
2017-05-16T16:24:54.711Z,27.70
2017-05-16T16:27:22.666Z,28.40
2017-05-16T16:29:51.663Z,28.50
2017-05-16T16:32:20.076Z,28.80
2017-05-16T16:34:48.311Z,28.80
2017-05-16T16:37:16.811Z,29.60
2017-05-16T16:39:44.212Z,31.20
2017-05-16T16:42:12.777Z,30.70
2017-05-16T16:44:40.754Z,30.70
2017-05-16T16:47:11.409Z,30.90
2017-05-16T16:49:38.939Z,31.90
2017-05-16T16:52:06.624Z,32.60
2017-05-16T16:54:33.460Z,32.60
2017-05-16T16:57:01.405Z,32.60
2017-05-16T16:59:28.315Z,32.50
2017-05-16T17:01:59.317Z,32.50
2017-05-16T17:04:25.792Z,33.80
2017-05-16T17:06:54.991Z,35.60
2017-05-16T17:11:53.244Z,36.50
2017-05-16T17:14:21.251Z,36.20
2017-05-16T17:16:47.848Z,36.20
2017-05-16T17:19:15.369Z,40.50
2017-05-16T17:21:42.585Z,41.10
2017-05-16T17:24:09.636Z,41.70
2017-05-16T17:26:36.447Z,40.30
2017-05-16T17:29:03.601Z,40.00
2017-05-16T17:31:30.375Z,40.00
2017-05-16T17:33:57.432Z,41.70
2017-05-16T17:36:24.154Z,41.70
2017-05-16T17:38:51.277Z,42.50
2017-05-16T17:41:18.480Z,43.30
2017-05-16T17:43:44.917Z,43.30
2017-05-16T17:46:12.080Z,43.60
2017-05-16T17:48:39.101Z,43.50
2017-05-16T17:51:06.807Z,44.60
2017-05-16T17:53:33.590Z,44.20
2017-05-16T17:56:00.335Z,44.20
2017-05-16T17:58:27.924Z,43.90
2017-05-16T18:00:55.435Z,45.20
2017-05-16T18:03:22.245Z,46.80
2017-05-16T18:05:49.737Z,45.00
2017-05-16T18:08:17.754Z,46.70
2017-05-16T18:10:45.871Z,47.50
2017-05-16T18:13:13.037Z,47.70
2017-05-16T18:18:12.180Z,47.10
2017-05-16T18:20:43.414Z,49.20
2017-05-16T18:23:14.741Z,49.60
2017-05-16T18:25:42.492Z,49.60
2017-05-16T18:28:12.832Z,48.80
2017-05-16T18:30:39.727Z,49.40
2017-05-16T18:33:07.564Z,50.00
2017-05-16T18:35:36.392Z,49.70
2017-05-16T18:38:03.787Z,50.90
2017-05-16T18:40:32.033Z,50.90
2017-05-16T18:42:59.164Z,50.60
2017-05-16T18:45:26.903Z,51.00
2017-05-16T18:47:54.949Z,51.10
2017-05-16T18:50:22.011Z,51.10
2017-05-16T18:52:48.796Z,52.40
2017-05-16T18:55:15.832Z,51.70
2017-05-16T18:57:43.364Z,51.70
2017-05-16T19:05:22.414Z,52.30
2017-05-16T19:07:49.901Z,54.70
2017-05-16T19:10:17.941Z,53.30
2017-05-16T19:12:44.836Z,53.30
2017-05-16T19:15:14.806Z,54.30
2017-05-16T19:17:42.616Z,54.20
2017-05-16T19:20:11.066Z,55.10
2017-05-16T19:22:38.786Z,55.50
2017-05-16T19:25:05.571Z,55.50
2017-05-16T19:27:32.734Z,55.10
2017-05-16T19:29:59.887Z,55.80
2017-05-16T19:32:29.601Z,55.40
2017-05-16T19:34:56.765Z,55.80
2017-05-16T19:37:23.646Z,56.60
2017-05-16T19:39:50.484Z,56.40
2017-05-16T19:42:18.932Z,56.70
2017-05-16T19:44:45.401Z,56.70
2017-05-16T19:47:12.309Z,58.60
2017-05-16T19:49:39.099Z,58.60
2017-05-16T19:52:05.976Z,58.80
2017-05-16T19:54:32.769Z,58.80
2017-05-16T19:56:59.241Z,58.80
2017-05-16T19:59:25.713Z,59.50
2017-05-16T20:01:52.590Z,59.30
2017-05-16T20:04:19.128Z,60.20
2017-05-16T20:06:46.991Z,60.60
2017-05-16T20:09:13.818Z,60.70
2017-05-16T20:11:42.648Z,62.00
2017-05-16T20:14:09.752Z,62.50
2017-05-16T20:16:37.283Z,62.20
2017-05-16T20:19:04.943Z,62.30
2017-05-16T20:21:31.950Z,63.20
2017-05-16T20:24:00.379Z,63.40
2017-05-16T20:26:27.528Z,63.30
2017-05-16T20:28:54.662Z,63.70
2017-05-16T20:31:22.150Z,63.80
2017-05-16T20:33:50.816Z,64.20
2017-05-16T20:36:17.772Z,65.20
2017-05-16T20:38:48.158Z,65.20
2017-05-16T20:41:15.599Z,65.40
2017-05-16T20:43:42.717Z,66.30
2017-05-16T20:46:10.354Z,66.50
2017-05-16T20:48:37.059Z,66.50
2017-05-16T20:51:04.049Z,67.00
2017-05-16T20:53:32.264Z,66.80
2017-05-16T20:55:59.426Z,67.40
2017-05-16T20:58:27.229Z,67.70
2017-05-16T21:00:54.121Z,67.50
2017-05-16T21:03:20.549Z,67.50
2017-05-16T21:05:48.249Z,67.70
2017-05-16T21:08:15.513Z,67.90
2017-05-16T21:10:42.584Z,67.70
2017-05-16T21:13:09.445Z,68.20
2017-05-16T21:18:07.513Z,67.70
2017-05-16T21:20:35.920Z,68.80
2017-05-16T21:23:03.145Z,68.00
2017-05-16T21:25:30.204Z,68.00
2017-05-16T21:27:56.987Z,68.50
2017-05-16T21:30:25.040Z,68.60
2017-05-16T21:32:53.090Z,68.20
2017-05-16T21:35:20.257Z,68.40
2017-05-16T21:37:47.083Z,68.50
2017-05-16T21:40:14.841Z,68.70
2017-05-16T21:42:42.428Z,68.80
2017-05-16T21:45:09.594Z,68.80
2017-05-16T21:47:37.469Z,69.20
2017-05-16T21:50:05.844Z,69.20
2017-05-16T21:52:32.592Z,69.20
2017-05-16T21:54:59.032Z,69.50
2017-05-16T21:57:25.896Z,70.60
2017-05-16T21:59:53.132Z,70.60
2017-05-16T22:02:21.601Z,71.00
2017-05-16T22:04:48.672Z,71.10
2017-05-16T22:07:15.465Z,71.30
2017-05-16T22:09:42.876Z,71.10
2017-05-16T22:12:09.953Z,71.40
2017-05-16T22:14:36.727Z,70.60
2017-05-16T22:17:03.544Z,70.60
2017-05-16T22:19:30.323Z,71.00
2017-05-16T22:21:58.353Z,71.50
2017-05-16T22:24:25.969Z,71.40
2017-05-16T22:26:53.473Z,71.30
2017-05-16T22:29:20.225Z,71.90
2017-05-16T22:31:47.121Z,71.90
2017-05-16T22:34:13.965Z,71.60
2017-05-16T22:36:41.076Z,71.10
2017-05-16T22:39:07.988Z,70.70
2017-05-16T22:41:34.817Z,71.30
2017-05-16T22:44:01.921Z,71.30
2017-05-16T22:46:28.741Z,71.90
2017-05-16T22:48:55.183Z,71.90
2017-05-16T22:51:22.288Z,72.00
2017-05-16T22:53:48.670Z,72.00
2017-05-16T22:56:15.769Z,72.10
2017-05-16T22:58:42.524Z,72.40
2017-05-16T23:01:09.387Z,72.00
2017-05-16T23:03:36.932Z,71.50
2017-05-16T23:06:04.113Z,71.70
2017-05-16T23:11:04.994Z,72.20
2017-05-16T23:13:32.019Z,72.00
2017-05-16T23:15:59.137Z,72.00
2017-05-16T23:18:25.913Z,71.60
2017-05-16T23:20:52.741Z,71.40
2017-05-16T23:23:19.160Z,71.40
2017-05-16T23:25:46.323Z,71.70
2017-05-16T23:28:13.889Z,71.60
2017-05-16T23:30:41.078Z,72.10
2017-05-16T23:33:07.573Z,72.10
2017-05-16T23:35:34.106Z,72.30
2017-05-16T23:38:01.939Z,72.30
2017-05-16T23:40:29.021Z,72.70
2017-05-16T23:42:56.111Z,72.60
2017-05-16T23:45:22.941Z,72.80
2017-05-16T23:47:51.294Z,72.80
2017-05-16T23:50:18.437Z,72.50
2017-05-16T23:52:45.848Z,73.40
2017-05-16T23:55:12.903Z,73.40
2017-05-16T23:57:40.160Z,73.60
